createdAt,value
2019-04-03T00:00:32.807Z,90.69
2019-04-03T00:01:34.242Z,90.32
2019-04-03T00:02:34.032Z,90.28
2019-04-03T00:03:34.096Z,90.08
2019-04-03T00:04:34.074Z,90.59
2019-04-03T00:05:33.758Z,89.66
2019-04-03T00:06:33.601Z,90.38
2019-04-03T00:07:33.770Z,90.28
2019-04-03T00:08:32.618Z,90.48
2019-04-03T00:09:32.471Z,90.48
2019-04-03T00:10:32.424Z,91.20
2019-04-03T00:11:32.414Z,90.89
2019-04-03T00:12:32.407Z,90.18
2019-04-03T00:13:32.537Z,90.38
2019-04-03T00:14:32.378Z,90.80
2019-04-03T00:15:32.384Z,91.41
2019-04-03T00:16:32.359Z,91.61
2019-04-03T00:17:32.388Z,91.61
2019-04-03T00:18:32.356Z,90.28
2019-04-03T00:19:32.340Z,90.38
2019-04-03T00:20:32.334Z,89.76
2019-04-03T00:21:32.305Z,89.62
2019-04-03T00:22:32.343Z,89.11
2019-04-03T00:23:32.294Z,89.72
2019-04-03T00:24:33.173Z,89.52
2019-04-03T00:25:32.256Z,88.70
2019-04-03T00:26:32.248Z,88.59
2019-04-03T00:27:32.284Z,87.43
2019-04-03T00:28:32.223Z,87.12
2019-04-03T00:29:32.230Z,87.32
2019-04-03T00:30:32.446Z,87.84
2019-04-03T00:31:32.201Z,87.63
2019-04-03T00:32:32.217Z,87.08
2019-04-03T00:33:32.185Z,86.77
2019-04-03T00:34:32.158Z,87.28
2019-04-03T00:35:32.248Z,86.46
2019-04-03T00:36:32.144Z,86.66
2019-04-03T00:37:32.124Z,86.98
2019-04-03T00:38:32.170Z,86.57
2019-04-03T00:39:32.102Z,86.15
2019-04-03T00:40:32.092Z,85.74
2019-04-03T00:41:32.128Z,86.36
2019-04-03T00:42:32.083Z,86.57
2019-04-03T00:43:32.073Z,86.46
2019-04-03T00:44:32.063Z,86.87
2019-04-03T00:45:32.036Z,86.46
2019-04-03T00:46:32.026Z,85.64
2019-04-03T00:47:32.014Z,85.95
2019-04-03T00:48:32.034Z,86.15
2019-04-03T00:49:32.009Z,85.50
2019-04-03T00:50:32.181Z,85.95
2019-04-03T00:51:31.976Z,86.01
2019-04-03T00:52:32.145Z,86.05
2019-04-03T00:53:31.956Z,85.44
2019-04-03T00:54:32.124Z,85.33
2019-04-03T00:55:31.937Z,85.74
2019-04-03T00:56:31.914Z,86.57
2019-04-03T00:57:31.908Z,86.25
2019-04-03T00:58:31.987Z,85.95
2019-04-03T00:59:31.882Z,85.85
2019-04-03T01:00:31.899Z,85.74
2019-04-03T01:01:32.173Z,86.36
2019-04-03T01:02:31.856Z,86.36
2019-04-03T01:03:31.836Z,85.95
2019-04-03T01:04:31.840Z,86.46
2019-04-03T01:05:31.814Z,86.36
2019-04-03T01:06:31.819Z,85.95
2019-04-03T01:07:31.954Z,85.85
2019-04-03T01:08:31.783Z,86.15
2019-04-03T01:09:31.773Z,85.39
2019-04-03T01:10:31.764Z,85.64
2019-04-03T01:11:31.750Z,85.09
2019-04-03T01:12:31.775Z,84.88
2019-04-03T01:13:31.903Z,84.58
2019-04-03T01:14:32.135Z,84.37
2019-04-03T01:15:32.196Z,85.19
2019-04-03T01:16:32.967Z,83.96
2019-04-03T01:17:34.263Z,83.76
2019-04-03T01:18:34.258Z,83.61
2019-04-03T01:19:31.663Z,84.17
2019-04-03T01:20:31.657Z,83.96
2019-04-03T01:21:31.638Z,84.23
2019-04-03T01:22:31.632Z,83.86
2019-04-03T01:23:31.656Z,84.23
2019-04-03T01:24:31.609Z,84.03
2019-04-03T01:25:31.691Z,83.61
2019-04-03T01:26:31.589Z,84.03
2019-04-03T01:27:31.582Z,83.86
2019-04-03T01:28:31.563Z,83.86
2019-04-03T01:29:31.588Z,84.06
2019-04-03T01:30:31.543Z,84.17
2019-04-03T01:31:31.589Z,84.06
2019-04-03T01:32:31.518Z,83.86
2019-04-03T01:33:31.517Z,84.27
2019-04-03T01:34:31.519Z,84.47
2019-04-03T01:35:31.490Z,84.06
2019-04-03T01:36:31.476Z,84.58
2019-04-03T01:37:31.470Z,85.39
2019-04-03T01:38:31.452Z,86.11
2019-04-03T01:39:31.461Z,85.80
2019-04-03T01:40:31.437Z,86.46
2019-04-03T01:41:31.433Z,87.08
2019-04-03T01:42:31.416Z,86.66
2019-04-03T01:43:31.396Z,87.38
2019-04-03T01:44:31.397Z,87.38
2019-04-03T01:45:31.391Z,86.87
2019-04-03T01:46:31.369Z,86.98
2019-04-03T01:47:31.349Z,87.18
2019-04-03T01:48:31.340Z,86.87
2019-04-03T01:49:31.329Z,87.08
2019-04-03T01:50:31.345Z,86.87
2019-04-03T01:51:31.310Z,87.90
2019-04-03T01:52:32.137Z,88.10
2019-04-03T01:53:32.690Z,88.66
2019-04-03T01:54:31.592Z,88.24
2019-04-03T01:55:34.122Z,87.53
2019-04-03T01:56:31.283Z,87.53
2019-04-03T01:57:31.253Z,88.21
2019-04-03T01:58:31.228Z,87.70
2019-04-03T01:59:31.218Z,88.35
2019-04-03T02:00:31.393Z,88.76
2019-04-03T02:01:31.194Z,88.35
2019-04-03T02:02:31.218Z,89.48
2019-04-03T02:03:31.194Z,89.58
2019-04-03T02:04:31.187Z,89.78
2019-04-03T02:05:31.160Z,89.58
2019-04-03T02:06:31.260Z,88.66
2019-04-03T02:07:31.128Z,89.58
2019-04-03T02:08:31.131Z,89.62
2019-04-03T02:09:31.147Z,90.55
2019-04-03T02:10:31.111Z,91.22
2019-04-03T02:11:31.107Z,90.40
2019-04-03T02:12:31.076Z,91.02
2019-04-03T02:13:31.287Z,91.33
2019-04-03T02:14:31.061Z,91.02
2019-04-03T02:15:31.050Z,90.81
2019-04-03T02:16:31.029Z,91.63
2019-04-03T02:17:31.117Z,91.42
2019-04-03T02:18:31.006Z,91.02
2019-04-03T02:19:30.996Z,92.76
2019-04-03T02:20:30.984Z,92.86
2019-04-03T02:21:30.993Z,93.07
2019-04-03T02:22:30.976Z,92.66
2019-04-03T02:23:31.254Z,93.07
2019-04-03T02:24:31.801Z,93.38
2019-04-03T02:25:32.155Z,93.89
2019-04-03T02:26:32.715Z,93.59
2019-04-03T02:27:31.675Z,93.68
2019-04-03T02:28:31.023Z,93.27
2019-04-03T02:29:30.882Z,92.66
2019-04-03T02:30:30.877Z,93.79
2019-04-03T02:31:30.876Z,92.66
2019-04-03T02:32:30.850Z,92.50
2019-04-03T02:33:30.897Z,92.55
2019-04-03T02:34:33.660Z,92.46
2019-04-03T02:35:30.818Z,92.50
2019-04-03T02:36:30.807Z,92.91
2019-04-03T02:37:30.816Z,92.08
2019-04-03T02:38:30.829Z,91.84
2019-04-03T02:39:31.083Z,91.88
2019-04-03T02:40:32.701Z,91.37
2019-04-03T02:41:30.952Z,92.19
2019-04-03T02:42:30.744Z,92.50
2019-04-03T02:43:30.858Z,92.80
2019-04-03T02:44:30.730Z,92.50
2019-04-03T02:45:30.740Z,92.80
2019-04-03T02:46:30.937Z,92.50
2019-04-03T02:47:33.530Z,92.08
2019-04-03T02:48:30.700Z,92.08
2019-04-03T02:49:30.671Z,91.61
2019-04-03T02:50:30.687Z,91.41
2019-04-03T02:51:30.656Z,91.72
2019-04-03T02:52:30.742Z,91.72
2019-04-03T02:53:31.225Z,92.03
2019-04-03T02:54:34.689Z,92.03
2019-04-03T02:55:30.598Z,92.13
2019-04-03T02:56:30.661Z,92.74
2019-04-03T02:57:30.590Z,92.95
2019-04-03T02:58:30.562Z,93.05
2019-04-03T02:59:30.568Z,92.85
2019-04-03T03:00:33.125Z,93.57
2019-04-03T03:01:30.891Z,93.26
2019-04-03T03:02:30.522Z,93.36
2019-04-03T03:03:30.530Z,93.77
2019-04-03T03:04:30.530Z,93.57
2019-04-03T03:05:30.700Z,91.93
2019-04-03T03:06:32.734Z,91.57
2019-04-03T03:07:30.463Z,91.06
2019-04-03T03:08:30.453Z,90.75
2019-04-03T03:09:30.569Z,89.83
2019-04-03T03:10:31.746Z,90.44
2019-04-03T03:11:30.714Z,89.42
2019-04-03T03:12:30.420Z,88.08
2019-04-03T03:13:33.664Z,87.73
2019-04-03T03:14:30.388Z,87.32
2019-04-03T03:15:30.384Z,87.02
2019-04-03T03:16:30.386Z,86.91
2019-04-03T03:17:30.616Z,85.58
2019-04-03T03:18:30.343Z,85.68
2019-04-03T03:19:33.086Z,85.64
2019-04-03T03:20:30.336Z,85.38
2019-04-03T03:21:30.583Z,86.05
2019-04-03T03:22:30.333Z,85.74
2019-04-03T03:23:30.432Z,86.46
2019-04-03T03:24:30.285Z,86.36
2019-04-03T03:25:33.586Z,87.43
2019-04-03T03:26:30.254Z,86.81
2019-04-03T03:27:30.378Z,87.84
2019-04-03T03:28:30.603Z,88.66
2019-04-03T03:29:30.345Z,89.93
2019-04-03T03:30:42.660Z,88.59
2019-04-03T03:31:59.810Z,88.49
2019-04-03T03:32:35.445Z,88.56
2019-04-03T03:33:36.560Z,88.59
2019-04-03T03:34:48.796Z,88.39
2019-04-03T03:35:39.531Z,89.31
2019-04-03T03:36:31.325Z,91.37
2019-04-03T03:37:33.118Z,91.93
2019-04-03T03:38:30.120Z,90.80
2019-04-03T03:39:30.145Z,90.48
2019-04-03T03:40:30.273Z,90.38
2019-04-03T03:41:37.646Z,90.18
2019-04-03T03:42:37.641Z,90.28
2019-04-03T03:43:38.938Z,90.08
2019-04-03T03:44:43.077Z,90.12
2019-04-03T03:45:31.043Z,88.78
2019-04-03T03:46:37.593Z,88.68
2019-04-03T03:47:37.772Z,88.17
2019-04-03T03:48:30.016Z,88.37
2019-04-03T03:49:37.864Z,88.53
2019-04-03T03:50:30.036Z,88.37
2019-04-03T03:51:31.474Z,88.53
2019-04-03T03:52:29.983Z,88.53
2019-04-03T03:53:30.280Z,89.76
2019-04-03T03:54:37.525Z,88.64
2019-04-03T03:55:29.955Z,88.02
2019-04-03T03:56:31.223Z,88.12
2019-04-03T03:57:29.956Z,87.51
2019-04-03T03:58:30.189Z,88.33
2019-04-03T03:59:29.896Z,88.74
2019-04-03T04:00:29.890Z,88.64
2019-04-03T04:01:31.474Z,88.43
2019-04-03T04:02:29.858Z,88.53
2019-04-03T04:03:29.864Z,87.82
2019-04-03T04:04:29.833Z,88.33
2019-04-03T04:05:29.821Z,87.71
2019-04-03T04:06:30.363Z,86.99
2019-04-03T04:07:29.814Z,86.95
2019-04-03T04:08:29.803Z,86.85
2019-04-03T04:09:29.818Z,87.46
2019-04-03T04:10:29.774Z,87.16
2019-04-03T04:11:31.077Z,87.46
2019-04-03T04:12:29.768Z,87.26
2019-04-03T04:13:30.177Z,87.05
2019-04-03T04:14:29.721Z,87.57
2019-04-03T04:15:30.925Z,86.24
2019-04-03T04:16:29.776Z,86.54
2019-04-03T04:17:30.021Z,86.03
2019-04-03T04:18:29.693Z,85.31
2019-04-03T04:19:31.044Z,85.31
2019-04-03T04:20:30.089Z,83.83
2019-04-03T04:21:29.649Z,85.27
2019-04-03T04:22:29.671Z,84.25
2019-04-03T04:23:29.623Z,83.90
2019-04-03T04:24:29.621Z,84.25
2019-04-03T04:25:30.593Z,83.90
2019-04-03T04:26:31.292Z,83.49
2019-04-03T04:27:29.603Z,83.18
2019-04-03T04:28:29.629Z,83.18
2019-04-03T04:29:29.555Z,82.67
2019-04-03T04:30:29.551Z,82.67
2019-04-03T04:31:29.543Z,84.20
2019-04-03T04:32:29.549Z,83.59
2019-04-03T04:33:29.615Z,82.87
2019-04-03T04:34:29.512Z,83.59
2019-04-03T04:35:29.583Z,82.97
2019-04-03T04:36:29.479Z,83.69
2019-04-03T04:37:29.466Z,82.67
2019-04-03T04:38:29.482Z,83.28
2019-04-03T04:39:29.469Z,83.80
2019-04-03T04:40:31.249Z,84.52
2019-04-03T04:41:32.194Z,83.69
2019-04-03T04:42:29.426Z,83.59
2019-04-03T04:43:29.402Z,83.39
2019-04-03T04:44:29.405Z,83.18
2019-04-03T04:45:29.379Z,83.80
2019-04-03T04:46:29.509Z,83.69
2019-04-03T04:47:29.356Z,83.39
2019-04-03T04:48:29.378Z,83.80
2019-04-03T04:49:29.336Z,82.87
2019-04-03T04:50:29.321Z,82.77
2019-04-03T04:51:29.371Z,82.87
2019-04-03T04:52:29.302Z,82.97
2019-04-03T04:53:30.182Z,82.56
2019-04-03T04:54:30.604Z,81.91
2019-04-03T04:55:31.334Z,81.91
2019-04-03T04:56:29.264Z,81.81
2019-04-03T04:57:29.255Z,81.09
2019-04-03T04:58:29.289Z,81.60
2019-04-03T04:59:29.236Z,81.36
2019-04-03T05:00:30.012Z,81.81
2019-04-03T05:01:29.246Z,81.81
2019-04-03T05:02:29.192Z,80.74
2019-04-03T05:03:29.180Z,80.33
2019-04-03T05:04:29.166Z,81.60
2019-04-03T05:05:30.715Z,80.54
2019-04-03T05:06:29.934Z,80.44
2019-04-03T05:07:30.823Z,81.67
2019-04-03T05:08:29.175Z,80.54
2019-04-03T05:09:29.209Z,80.33
2019-04-03T05:10:29.113Z,80.19
2019-04-03T05:11:29.312Z,80.54
2019-04-03T05:12:29.095Z,80.64
2019-04-03T05:13:29.068Z,80.33
2019-04-03T05:14:29.057Z,81.63
2019-04-03T05:15:29.097Z,81.43
2019-04-03T05:16:29.034Z,80.44
2019-04-03T05:17:29.406Z,80.33
2019-04-03T05:18:29.610Z,80.44
2019-04-03T05:19:29.228Z,80.64
2019-04-03T05:20:28.994Z,80.30
2019-04-03T05:21:28.980Z,80.64
2019-04-03T05:22:28.965Z,81.67
2019-04-03T05:23:28.982Z,80.64
2019-04-03T05:24:29.536Z,80.74
2019-04-03T05:25:29.853Z,81.63
2019-04-03T05:26:31.731Z,81.77
2019-04-03T05:27:29.078Z,81.12
2019-04-03T05:28:28.900Z,81.94
2019-04-03T05:29:28.903Z,81.26
2019-04-03T05:30:28.973Z,80.60
2019-04-03T05:31:28.884Z,81.63
2019-04-03T05:32:28.859Z,80.60
2019-04-03T05:33:28.864Z,81.12
2019-04-03T05:34:28.873Z,81.26
2019-04-03T05:35:28.955Z,81.22
2019-04-03T05:36:28.831Z,82.14
2019-04-03T05:37:28.806Z,80.71
2019-04-03T05:38:28.861Z,81.43
2019-04-03T05:39:28.983Z,81.43
2019-04-03T05:40:28.953Z,82.14
2019-04-03T05:41:28.820Z,81.52
2019-04-03T05:42:29.519Z,81.77
2019-04-03T05:43:30.394Z,80.60
2019-04-03T05:44:28.727Z,80.30
2019-04-03T05:45:28.706Z,79.99
2019-04-03T05:46:28.925Z,79.44
2019-04-03T05:47:28.689Z,80.46
2019-04-03T05:48:28.687Z,80.57
2019-04-03T05:49:28.670Z,79.96
2019-04-03T05:50:29.052Z,79.96
2019-04-03T05:51:29.967Z,80.05
2019-04-03T05:52:28.630Z,79.96
2019-04-03T05:53:28.638Z,80.16
2019-04-03T05:54:28.619Z,79.85
2019-04-03T05:55:28.600Z,80.57
2019-04-03T05:56:28.608Z,80.46
2019-04-03T05:57:29.570Z,79.13
2019-04-03T05:58:28.566Z,80.57
2019-04-03T05:59:28.573Z,80.77
2019-04-03T06:00:28.547Z,81.12
2019-04-03T06:01:28.529Z,81.52
2019-04-03T06:02:28.531Z,81.18
2019-04-03T06:03:40.174Z,81.32
2019-04-03T06:04:29.569Z,79.85
2019-04-03T06:05:28.487Z,80.05
2019-04-03T06:06:28.495Z,79.44
2019-04-03T06:07:28.484Z,79.64
2019-04-03T06:08:28.449Z,79.96
2019-04-03T06:09:28.441Z,79.24
2019-04-03T06:10:31.606Z,79.96
2019-04-03T06:11:28.632Z,79.85
2019-04-03T06:12:28.546Z,79.50
2019-04-03T06:13:28.390Z,79.54
2019-04-03T06:14:28.393Z,80.02
2019-04-03T06:15:28.396Z,80.22
2019-04-03T06:16:28.356Z,80.53
2019-04-03T06:17:28.346Z,80.67
2019-04-03T06:18:31.184Z,79.13
2019-04-03T06:19:28.377Z,79.91
2019-04-03T06:20:28.565Z,80.26
2019-04-03T06:21:28.315Z,79.34
2019-04-03T06:22:28.290Z,79.82
2019-04-03T06:23:28.464Z,80.43
2019-04-03T06:24:28.271Z,79.54
2019-04-03T06:25:30.096Z,80.36
2019-04-03T06:26:28.246Z,80.22
2019-04-03T06:27:28.490Z,80.63
2019-04-03T06:28:28.223Z,80.74
2019-04-03T06:29:28.232Z,80.22
2019-04-03T06:30:28.268Z,80.77
2019-04-03T06:31:28.208Z,81.59
2019-04-03T06:32:29.454Z,81.38
2019-04-03T06:33:31.319Z,81.38
2019-04-03T06:34:28.242Z,81.29
2019-04-03T06:35:28.347Z,81.59
2019-04-03T06:36:28.216Z,81.79
2019-04-03T06:37:28.122Z,82.21
2019-04-03T06:38:28.111Z,82.00
2019-04-03T06:39:31.241Z,81.59
2019-04-03T06:40:28.112Z,82.41
2019-04-03T06:41:28.285Z,83.27
2019-04-03T06:42:28.066Z,83.54
2019-04-03T06:43:29.996Z,83.54
2019-04-03T06:44:28.262Z,83.78
2019-04-03T06:45:28.068Z,83.68
2019-04-03T06:46:29.140Z,83.78
2019-04-03T06:47:28.018Z,84.87
2019-04-03T06:48:27.999Z,84.97
2019-04-03T06:49:27.989Z,84.77
2019-04-03T06:50:27.997Z,85.22
2019-04-03T06:51:27.974Z,85.22
2019-04-03T06:52:27.969Z,85.07
2019-04-03T06:53:28.808Z,85.63
2019-04-03T06:54:31.141Z,86.04
2019-04-03T06:55:27.972Z,85.72
2019-04-03T06:56:28.042Z,86.75
2019-04-03T06:57:27.936Z,87.47
2019-04-03T06:58:37.306Z,87.77
2019-04-03T06:59:28.880Z,87.26
2019-04-03T07:00:27.865Z,88.70
2019-04-03T07:01:28.459Z,87.77
2019-04-03T07:02:31.115Z,89.51
2019-04-03T07:03:28.178Z,88.94
2019-04-03T07:04:30.427Z,89.04
2019-04-03T07:05:34.422Z,89.66
2019-04-03T07:06:27.802Z,90.07
2019-04-03T07:07:34.145Z,90.89
2019-04-03T07:08:34.827Z,89.97
2019-04-03T07:09:35.320Z,90.07
2019-04-03T07:10:28.767Z,90.28
2019-04-03T07:11:27.750Z,91.20
2019-04-03T07:12:27.850Z,91.09
2019-04-03T07:13:29.752Z,91.40
2019-04-03T07:14:27.730Z,91.91
2019-04-03T07:15:27.743Z,91.40
2019-04-03T07:16:28.569Z,91.71
2019-04-03T07:17:27.679Z,92.74
2019-04-03T07:18:27.662Z,91.40
2019-04-03T07:19:28.421Z,91.91
2019-04-03T07:20:27.646Z,92.32
2019-04-03T07:21:27.863Z,92.63
2019-04-03T07:22:28.310Z,93.55
2019-04-03T07:23:30.214Z,93.15
2019-04-03T07:24:27.600Z,92.43
2019-04-03T07:25:27.988Z,93.66
2019-04-03T07:26:28.144Z,93.25
2019-04-03T07:27:27.760Z,93.45
2019-04-03T07:28:30.167Z,93.35
2019-04-03T07:29:35.722Z,93.04
2019-04-03T07:30:30.511Z,92.63
2019-04-03T07:31:27.529Z,93.35
2019-04-03T07:32:27.891Z,92.63
2019-04-03T07:33:28.695Z,93.35
2019-04-03T07:34:27.638Z,93.35
2019-04-03T07:35:30.463Z,93.45
2019-04-03T07:36:27.462Z,93.25
2019-04-03T07:37:27.495Z,93.25
2019-04-03T07:38:27.557Z,93.55
2019-04-03T07:39:28.445Z,94.17
2019-04-03T07:40:27.592Z,93.66
2019-04-03T07:41:27.406Z,94.37
2019-04-03T07:42:34.950Z,94.17
2019-04-03T07:43:27.911Z,94.58
2019-04-03T07:44:30.629Z,94.78
2019-04-03T07:45:28.920Z,95.29
2019-04-03T07:46:27.920Z,95.20
2019-04-03T07:47:27.365Z,93.96
2019-04-03T07:48:27.393Z,94.58
2019-04-03T07:49:27.969Z,95.20
2019-04-03T07:50:27.308Z,95.20
2019-04-03T07:51:27.295Z,95.40
2019-04-03T07:52:29.924Z,95.66
2019-04-03T07:53:29.918Z,95.97
2019-04-03T07:54:30.189Z,95.66
2019-04-03T07:55:28.760Z,95.56
2019-04-03T07:56:54.793Z,95.56
2019-04-03T07:58:01.615Z,95.29
2019-04-03T07:58:50.583Z,95.05
2019-04-03T08:11:03.325Z,96.58
2019-04-03T08:12:04.200Z,96.69
2019-04-03T08:13:03.376Z,96.58
2019-04-03T08:14:03.207Z,96.38
2019-04-03T08:15:03.171Z,96.53
2019-04-03T08:16:03.192Z,96.48
2019-04-03T08:22:18.874Z,97.65
2019-04-03T08:23:18.868Z,97.65
2019-04-03T08:24:18.800Z,97.75
2019-04-03T08:25:18.811Z,97.75
2019-04-03T08:26:19.808Z,97.71
2019-04-03T08:27:18.683Z,97.75
2019-04-03T08:28:19.080Z,97.71
2019-04-03T08:29:18.860Z,98.02
2019-04-03T08:30:19.077Z,97.71
2019-04-03T08:31:18.643Z,98.12
2019-04-03T08:32:18.628Z,97.91
2019-04-03T08:33:24.035Z,97.66
2019-04-03T08:34:19.740Z,97.91
2019-04-03T08:35:21.793Z,98.02
2019-04-03T08:36:25.061Z,97.91
2019-04-03T08:37:29.906Z,98.22
2019-04-03T08:38:19.565Z,97.50
2019-04-03T08:39:18.558Z,97.30
2019-04-03T08:40:20.690Z,98.02
2019-04-03T08:41:18.682Z,97.91
2019-04-03T08:42:18.614Z,97.81
2019-04-03T08:43:18.568Z,97.87
2019-04-03T08:44:18.519Z,97.97
2019-04-03T08:45:20.968Z,97.91
2019-04-03T08:46:18.521Z,97.87
2019-04-03T08:47:18.477Z,97.97
2019-04-03T08:48:18.792Z,98.58
2019-04-03T08:49:18.445Z,97.87
2019-04-03T08:50:18.446Z,97.97
2019-04-03T08:51:18.748Z,97.97
2019-04-03T08:52:18.430Z,97.77
2019-04-03T08:53:18.471Z,97.97
2019-04-03T08:54:18.410Z,97.36
2019-04-03T08:55:18.440Z,97.46
2019-04-03T08:56:18.402Z,97.97
2019-04-03T08:57:20.560Z,97.66
2019-04-03T08:58:20.822Z,97.31
2019-04-03T08:59:18.337Z,98.28
2019-04-03T09:00:18.418Z,97.72
2019-04-03T09:01:18.460Z,97.72
2019-04-03T09:02:18.302Z,97.82
2019-04-03T09:03:18.334Z,97.82
2019-04-03T09:04:18.760Z,97.52
2019-04-03T09:05:19.713Z,97.72
2019-04-03T09:06:18.266Z,98.49
2019-04-03T09:07:18.286Z,98.38
2019-04-03T09:08:18.495Z,97.87
2019-04-03T09:09:18.416Z,97.77
2019-04-03T09:10:18.219Z,98.07
2019-04-03T09:11:18.504Z,97.71
2019-04-03T09:12:18.195Z,98.07
2019-04-03T09:13:22.397Z,98.53
2019-04-03T09:14:20.272Z,98.53
2019-04-03T09:15:27.855Z,98.53
2019-04-03T09:16:28.847Z,98.63
2019-04-03T09:17:26.950Z,99.20
2019-04-03T09:18:29.786Z,99.04
2019-04-03T09:19:25.949Z,99.66
2019-04-03T09:20:25.736Z,99.25
2019-04-03T09:21:18.335Z,99.45
2019-04-03T09:22:25.748Z,99.86
2019-04-03T09:23:26.011Z,99.35
2019-04-03T09:24:29.652Z,99.99
2019-04-03T09:25:25.667Z,99.99
2019-04-03T09:26:18.094Z,99.66
2019-04-03T09:27:18.017Z,99.99
2019-04-03T09:28:18.354Z,99.99
2019-04-03T09:29:18.009Z,99.86
2019-04-03T09:30:18.022Z,99.99
2019-04-03T09:31:19.857Z,99.76
2019-04-03T09:52:42.424Z,99.99
2019-04-03T09:53:36.996Z,99.99
2019-04-03T09:54:36.201Z,99.82
2019-04-03T09:55:37.535Z,99.98
2019-04-03T09:56:37.520Z,99.99
2019-04-03T09:57:35.871Z,99.99
2019-04-03T09:58:36.671Z,99.46
2019-04-03T09:59:37.754Z,99.36
2019-04-03T10:00:35.871Z,99.46
2019-04-03T10:09:02.012Z,99.31
2019-04-03T10:10:01.913Z,99.62
2019-04-03T10:11:10.782Z,99.31
2019-04-03T10:12:02.055Z,99.21
2019-04-03T10:13:02.065Z,99.01
2019-04-03T10:14:01.863Z,99.11
2019-04-03T10:15:11.830Z,99.01
2019-04-03T10:16:10.521Z,98.49
2019-04-03T10:18:37.261Z,99.11
2019-04-03T10:52:43.976Z,98.50
2019-04-03T10:53:42.016Z,97.17
2019-04-03T10:54:40.540Z,97.89
2019-04-03T10:55:41.042Z,97.69
2019-04-03T10:56:52.101Z,97.85
2019-04-03T10:57:38.614Z,97.54
2019-04-03T10:58:43.156Z,96.87
2019-04-03T10:59:39.238Z,96.92
2019-04-03T11:00:38.633Z,96.92
2019-04-03T11:01:38.341Z,96.92
2019-04-03T11:02:36.926Z,96.62
2019-04-03T11:03:36.837Z,96.72
2019-04-03T11:04:36.906Z,96.31
2019-04-03T11:05:36.333Z,96.31
2019-04-03T11:06:37.506Z,97.13
2019-04-03T11:07:36.119Z,97.03
2019-04-03T11:08:36.416Z,96.31
2019-04-03T11:09:48.426Z,96.72
2019-04-03T11:10:37.576Z,95.25
2019-04-03T11:11:45.904Z,95.39
2019-04-03T11:12:36.545Z,94.33
2019-04-03T11:15:16.433Z,95.41
2019-04-03T11:16:13.148Z,95.16
2019-04-03T11:19:09.234Z,94.45
2019-04-03T11:20:09.771Z,93.73
2019-04-03T11:21:08.654Z,93.73
2019-04-03T11:22:07.503Z,93.99
2019-04-03T11:23:11.099Z,93.73
2019-04-03T11:24:08.320Z,93.43
2019-04-03T11:25:06.568Z,94.95
2019-04-03T11:26:10.535Z,92.71
2019-04-03T11:27:41.813Z,92.91
2019-04-03T11:28:14.418Z,93.43
2019-04-03T11:29:32.054Z,92.04
2019-04-03T11:34:19.933Z,93.43
2019-04-03T11:35:21.281Z,93.69
2019-04-03T11:36:19.734Z,93.89
2019-04-03T11:37:17.802Z,93.07
2019-04-03T11:38:26.310Z,92.61
2019-04-03T11:39:20.940Z,93.48
2019-04-03T11:40:20.635Z,92.57
2019-04-03T11:41:43.586Z,93.52
2019-04-03T11:42:42.343Z,92.86
2019-04-03T11:43:20.930Z,93.32
2019-04-03T11:44:24.424Z,93.37
2019-04-03T11:45:24.341Z,94.18
2019-04-03T11:46:22.923Z,93.67
2019-04-03T11:47:33.013Z,94.43
2019-04-03T11:51:53.084Z,95.20
2019-04-03T11:52:32.618Z,95.61
2019-04-03T12:00:16.556Z,95.67
2019-04-03T12:01:22.983Z,96.08
2019-04-03T12:02:18.790Z,96.28
2019-04-03T12:03:16.556Z,95.51
2019-04-03T12:04:16.146Z,95.57
2019-04-03T12:05:20.763Z,95.72
2019-04-03T12:06:41.948Z,95.36
2019-04-03T12:07:11.970Z,95.51
2019-04-03T12:08:20.594Z,95.47
2019-04-03T12:09:40.361Z,96.18
2019-04-03T12:10:19.218Z,95.10
2019-04-03T12:11:27.267Z,95.61
2019-04-03T12:19:07.539Z,95.51
2019-04-03T12:20:16.342Z,95.57
2019-04-03T12:21:18.762Z,95.20
2019-04-03T12:22:07.694Z,95.31
2019-04-03T12:23:16.027Z,94.55
2019-04-03T12:24:07.439Z,95.10
2019-04-03T12:25:15.191Z,94.90
2019-04-03T12:26:09.065Z,94.90
2019-04-03T12:27:07.391Z,95.31
2019-04-03T12:28:08.723Z,94.90
2019-04-03T12:29:08.273Z,94.90
2019-04-03T12:30:07.303Z,95.61
2019-04-03T12:31:07.348Z,95.31
2019-04-03T12:41:42.874Z,94.14
2019-04-03T12:42:40.599Z,94.85
2019-04-03T12:43:49.957Z,94.14
2019-04-03T12:44:40.916Z,94.24
2019-04-03T12:45:48.083Z,93.63
2019-04-03T12:46:50.066Z,93.52
2019-04-03T12:47:42.860Z,92.81
2019-04-03T12:48:50.864Z,93.37
2019-04-03T12:49:40.558Z,95.31
2019-04-03T12:50:40.451Z,95.47
2019-04-03T12:51:40.531Z,93.57
2019-04-03T12:52:43.418Z,93.67
2019-04-03T12:53:49.840Z,94.23
2019-04-03T12:54:40.463Z,95.15
2019-04-03T12:55:50.072Z,95.04
2019-04-03T12:56:40.437Z,94.43
2019-04-03T12:57:40.418Z,95.35
2019-04-03T12:58:40.404Z,95.65
2019-04-03T12:59:40.793Z,95.76
2019-04-03T13:00:40.523Z,95.25
2019-04-03T13:01:49.174Z,95.56
2019-04-03T13:02:40.386Z,95.96
2019-04-03T13:03:40.403Z,94.74
2019-04-03T13:04:40.493Z,95.76
2019-04-03T13:05:40.621Z,96.68
2019-04-03T13:06:41.815Z,96.27
2019-04-03T13:07:40.382Z,95.56
2019-04-03T13:08:40.545Z,96.06
2019-04-03T13:09:40.213Z,96.17
2019-04-03T13:10:43.192Z,95.25
2019-04-03T13:11:41.203Z,95.86
2019-04-03T13:12:40.300Z,95.45
2019-04-03T13:13:40.188Z,94.74
2019-04-03T13:14:40.181Z,93.62
2019-04-03T13:15:40.258Z,94.02
2019-04-03T13:16:41.903Z,93.21
2019-04-03T13:17:43.279Z,93.25
2019-04-03T13:18:40.119Z,91.88
2019-04-03T13:19:40.119Z,92.29
2019-04-03T13:20:40.135Z,93.92
2019-04-03T13:21:40.333Z,92.80
2019-04-03T13:22:42.921Z,93.98
2019-04-03T13:23:40.060Z,91.57
2019-04-03T13:24:49.155Z,92.39
2019-04-03T13:25:40.135Z,91.67
2019-04-03T13:26:40.258Z,93.26
2019-04-03T13:27:40.121Z,93.77
2019-04-03T13:28:40.937Z,93.37
2019-04-03T13:29:40.823Z,92.45
2019-04-03T13:30:43.182Z,92.41
2019-04-03T13:31:39.966Z,91.49
2019-04-03T13:32:39.970Z,91.79
2019-04-03T13:33:39.981Z,92.00
2019-04-03T13:34:42.681Z,92.20
2019-04-03T13:35:39.926Z,93.22
2019-04-03T13:36:39.951Z,91.39
2019-04-03T13:37:39.906Z,91.83
2019-04-03T13:38:40.207Z,92.61
2019-04-03T13:39:39.917Z,92.04
2019-04-03T13:40:39.881Z,92.61
2019-04-03T13:41:42.363Z,93.12
2019-04-03T13:42:39.850Z,91.39
2019-04-03T13:43:39.835Z,92.30
2019-04-03T13:44:39.823Z,92.26
2019-04-03T13:45:40.016Z,91.24
2019-04-03T13:46:39.891Z,91.96
2019-04-03T13:47:41.828Z,90.94
2019-04-03T13:48:39.777Z,90.83
2019-04-03T13:49:39.937Z,90.32
2019-04-03T13:50:40.147Z,92.32
2019-04-03T13:51:39.773Z,91.81
2019-04-03T13:52:49.221Z,90.08
2019-04-03T13:53:39.831Z,90.85
2019-04-03T13:54:40.150Z,90.95
2019-04-03T13:55:40.777Z,90.85
2019-04-03T13:56:42.152Z,87.85
2019-04-03T13:57:39.688Z,88.36
2019-04-03T13:58:39.671Z,88.00
2019-04-03T13:59:39.698Z,87.35
2019-04-03T14:00:39.656Z,89.59
2019-04-03T14:01:40.275Z,89.85
2019-04-03T14:02:40.093Z,88.48
2019-04-03T14:03:39.615Z,87.26
2019-04-03T14:04:39.608Z,86.55
2019-04-03T14:05:42.494Z,87.16
2019-04-03T14:06:39.594Z,87.23
2019-04-03T14:07:41.666Z,87.02
2019-04-03T14:08:39.979Z,87.38
2019-04-03T14:09:39.545Z,85.60
2019-04-03T14:10:39.532Z,83.15
2019-04-03T14:11:39.928Z,84.82
2019-04-03T14:12:43.693Z,85.90
2019-04-03T14:13:42.575Z,83.87
2019-04-03T14:14:39.621Z,85.19
2019-04-03T14:15:41.137Z,85.80
2019-04-03T14:16:39.480Z,85.66
2019-04-03T14:17:39.763Z,83.97
2019-04-03T14:18:40.698Z,84.74
2019-04-03T14:19:44.921Z,84.64
2019-04-03T14:20:40.430Z,82.95
2019-04-03T14:21:39.531Z,83.97
2019-04-03T14:22:39.541Z,84.34
2019-04-03T14:23:40.629Z,84.74
2019-04-03T14:24:44.940Z,84.44
2019-04-03T14:25:40.372Z,81.90
2019-04-03T14:26:39.366Z,83.22
2019-04-03T14:27:39.598Z,83.53
2019-04-03T14:28:41.914Z,83.22
2019-04-03T14:29:39.733Z,84.13
2019-04-03T14:30:39.467Z,83.08
2019-04-03T14:31:39.709Z,82.98
2019-04-03T14:32:39.354Z,84.40
2019-04-03T14:33:44.088Z,82.33
2019-04-03T14:34:40.775Z,80.91
2019-04-03T14:35:49.437Z,80.80
2019-04-03T14:36:40.323Z,78.27
2019-04-03T14:37:39.695Z,78.78
2019-04-03T14:38:39.238Z,81.41
2019-04-03T14:39:39.748Z,79.18
2019-04-03T14:40:39.556Z,82.33
2019-04-03T14:41:39.516Z,81.48
2019-04-03T14:42:39.173Z,79.85
2019-04-03T14:43:39.453Z,80.97
2019-04-03T14:44:41.053Z,81.11
2019-04-03T14:45:40.162Z,79.59